Strona główna
METAR-TAF:

METAR-TAF

Lotnisko :

Ashtabula County Airport

Ashtabula, Ohio, Stany Zjednoczone

Szerokość geograficzna: 41-46-46N, Długość geograficzna: 080-41-48W, wysokość: 281 m

Aktualna obserwacja pogody

Raport powstał 57 minut temu, godzina 08:53 UTC
Wiatr 4 kt od wschód
Temperatura 12°C
Wilgotność 94%
Ciśnienie 1017 hPa
Widzialność: 16.1 km
bezchmurnie

METAR: KHZY 070853Z AUTO 09004KT 10SM CLR 12/11 A3003 RMK AO2 SLP164 T01220111 58004

czas: 05:50 (09:50 UTC)


TAF: brakujący

Obserwacja i prognoza pogody dla ponad 4000 lotnisk (raport METAR i TAF).

Dostępne stacje oznaczono żółtymi i czerwonymi punktami na mapie.

Najedź kursorem aby zobaczyć nazwę stacji.

Kliknij aby zobaczyć obserwacje i prognozy pogody.

Aby zmienić mapę: kliknij na zielony przycisk z czarnym krzyżykiem, aby powiększyć; na zielony przycisk z myślnikiem, aby pomniejszyć; na zielone strzałki, aby przejść do map sąsiednich.


METAR-TAF: